Главная страница
METAR-TAF:

METAR-TAF

Аэропорты :

Лаппеэнранта, Финляндия

широта: 61-02-45N, долгота: 028-08-55E, высота над уровнем моря: 106 м

Текущие метеонаблюдения

Эта сводка был подготовлена 16 минут назад, в 16:20 UTC
Ветер 4 Узел от северный
Температура 15°C
Влажность 82%
Давление 1015 hPa
Видимость 10 км и более
Нет облачности ниже 1500 м, и нет кучево-дождевой облачности

METAR: EFLP 231620Z AUTO 36004KT CAVOK 15/12 Q1015

Время: 19:36 (16:36 UTC)

Прогноз

Эта сводка был подготовлена 11 часа и 8 минут назад, в 05:28 UTC
Прогноз действительный с 23-го 06 UTC до 23-го 10 UTC
Ветер 8 Узел от северно-северо-западный
Видимость 10 км и более
Отдельные облака на высоте 2500 фута

TAF: EFLP 230528Z 2306/2310 33008KT 9999 SCT025

Метеонаблюдения и прогнозы для более 4000 аэропортов (сводки METAR и TAF).

Имеющиеся станции представлены на карте желтыми и красными точками.

Чтобы увидеть название станции, наведите на нее мышь.

Затем щелкните, чтобы увидеть метеонаблюдения и метеопрогнозы.

Управление картой: чтобы увеличить масштаб, щелкните зеленые кнопки с черным крестиком; чтобы уменьшить масштаб, щелкните зеленую кнопку с тире; для просмотра соседних карт щелкайте зеленые стрелки.


METAR-TAF: